Terminal Aerodrome Forecast
Issued by NWS

Home | Current Version | Previous Version | Text Only | Print | Product List | Glossary On
Versions: 1 2 3 4 5 6 7 8 9 10 11 12 13 14 15 16 17 18 19 20 21 22 23 24 25 26 27 28 29 30 31
000
FTUS43 KDMX 191404 AAA
TAFMCW
TAF AMD
KMCW 191404Z 1914/2012 16014KT P6SM SKC
     FM191500 19020G28KT P6SM SCT025 BKN060
     FM200100 19014KT P6SM SCT020 BKN120
      TEMPO 2006/2008 P6SM -TSRA BKN020CB
     FM201000 24010KT P6SM SCT020 BKN120=

USA.gov is the U.S. government's official web portal to all federal, state and local government web resources and services.